sensor_id;sensor_type;location;lat;lon;timestamp;pressure;altitude;pressure_sealevel;temperature;humidity
69127;BME280;56688;50.234;19.292;2023-04-08T00:02:14;98680.13;;;4.10;82.41
69127;BME280;56688;50.234;19.292;2023-04-08T00:04:41;98678.23;;;4.17;82.44
69127;BME280;56688;50.234;19.292;2023-04-08T00:07:08;98678.64;;;4.22;82.03
69127;BME280;56688;50.234;19.292;2023-04-08T00:09:35;98681.46;;;4.24;81.74
69127;BME280;56688;50.234;19.292;2023-04-08T00:12:01;98680.87;;;4.23;81.54
69127;BME280;56688;50.234;19.292;2023-04-08T00:14:28;98680.96;;;4.22;81.32
69127;BME280;56688;50.234;19.292;2023-04-08T00:16:55;98682.17;;;4.22;81.22
69127;BME280;56688;50.234;19.292;2023-04-08T00:19:22;98680.87;;;4.23;81.02
69127;BME280;56688;50.234;19.292;2023-04-08T00:21:49;98679.67;;;4.24;80.89
69127;BME280;56688;50.234;19.292;2023-04-08T00:24:16;98683.07;;;4.24;80.83
69127;BME280;56688;50.234;19.292;2023-04-08T00:26:43;98685.10;;;4.18;80.23
69127;BME280;56688;50.234;19.292;2023-04-08T00:29:10;98686.48;;;4.09;79.85
69127;BME280;56688;50.234;19.292;2023-04-08T00:31:37;98692.19;;;4.00;79.88
69127;BME280;56688;50.234;19.292;2023-04-08T00:34:04;98692.95;;;3.93;79.81
69127;BME280;56688;50.234;19.292;2023-04-08T00:36:30;98695.68;;;3.88;80.05
69127;BME280;56688;50.234;19.292;2023-04-08T00:38:57;98693.29;;;3.87;80.37
69127;BME280;56688;50.234;19.292;2023-04-08T00:41:24;98692.33;;;3.90;80.67
69127;BME280;56688;50.234;19.292;2023-04-08T00:43:51;98694.64;;;3.93;80.78
69127;BME280;56688;50.234;19.292;2023-04-08T00:46:18;98695.99;;;3.91;80.47
69127;BME280;56688;50.234;19.292;2023-04-08T00:48:46;98702.56;;;3.84;79.98
69127;BME280;56688;50.234;19.292;2023-04-08T00:51:13;98707.91;;;3.72;79.85
69127;BME280;56688;50.234;19.292;2023-04-08T00:53:40;98707.30;;;3.63;79.92
69127;BME280;56688;50.234;19.292;2023-04-08T00:56:06;98710.75;;;3.56;79.87
69127;BME280;56688;50.234;19.292;2023-04-08T00:58:33;98714.70;;;3.52;80.11
69127;BME280;56688;50.234;19.292;2023-04-08T01:01:13;98715.34;;;3.49;80.23
69127;BME280;56688;50.234;19.292;2023-04-08T01:04:01;98717.95;;;3.47;80.44
69127;BME280;56688;50.234;19.292;2023-04-08T01:06:40;98718.81;;;3.45;80.28
69127;BME280;56688;50.234;19.292;2023-04-08T01:09:13;98721.29;;;3.40;80.18
69127;BME280;56688;50.234;19.292;2023-04-08T01:11:45;98722.94;;;3.32;80.02
69127;BME280;56688;50.234;19.292;2023-04-08T01:14:19;98723.70;;;3.28;80.26
69127;BME280;56688;50.234;19.292;2023-04-08T01:16:46;98727.27;;;3.28;80.49
69127;BME280;56688;50.234;19.292;2023-04-08T01:19:22;98727.67;;;3.31;80.73
69127;BME280;56688;50.234;19.292;2023-04-08T01:21:54;98730.34;;;3.33;80.72
69127;BME280;56688;50.234;19.292;2023-04-08T01:24:29;98725.82;;;3.36;80.88
69127;BME280;56688;50.234;19.292;2023-04-08T01:26:58;98726.69;;;3.39;80.88
69127;BME280;56688;50.234;19.292;2023-04-08T01:29:28;98727.63;;;3.40;81.04
69127;BME280;56688;50.234;19.292;2023-04-08T01:31:58;98724.48;;;3.41;80.69
69127;BME280;56688;50.234;19.292;2023-04-08T01:34:28;98727.78;;;3.40;80.68
69127;BME280;56688;50.234;19.292;2023-04-08T01:36:57;98731.65;;;3.42;80.47
69127;BME280;56688;50.234;19.292;2023-04-08T01:39:24;98732.71;;;3.40;80.30
69127;BME280;56688;50.234;19.292;2023-04-08T01:41:53;98733.23;;;3.38;80.36
69127;BME280;56688;50.234;19.292;2023-04-08T01:44:23;98733.46;;;3.35;80.32
69127;BME280;56688;50.234;19.292;2023-04-08T01:46:50;98731.64;;;3.34;80.20
69127;BME280;56688;50.234;19.292;2023-04-08T01:49:17;98736.07;;;3.32;79.98
69127;BME280;56688;50.234;19.292;2023-04-08T01:51:45;98730.10;;;3.25;79.59
69127;BME280;56688;50.234;19.292;2023-04-08T01:54:13;98731.28;;;3.20;79.51
69127;BME280;56688;50.234;19.292;2023-04-08T01:56:41;98729.08;;;3.13;79.19
69127;BME280;56688;50.234;19.292;2023-04-08T01:59:13;98733.38;;;3.04;79.15
69127;BME280;56688;50.234;19.292;2023-04-08T02:01:42;98733.39;;;2.94;78.81
69127;BME280;56688;50.234;19.292;2023-04-08T02:04:12;98736.89;;;2.89;78.76
69127;BME280;56688;50.234;19.292;2023-04-08T02:06:39;98739.94;;;2.82;78.62
69127;BME280;56688;50.234;19.292;2023-04-08T02:09:06;98740.14;;;2.77;78.92
69127;BME280;56688;50.234;19.292;2023-04-08T02:11:35;98746.00;;;2.73;79.01
69127;BME280;56688;50.234;19.292;2023-04-08T02:14:02;98745.92;;;2.68;79.21
69127;BME280;56688;50.234;19.292;2023-04-08T02:16:35;98750.00;;;2.63;79.15
69127;BME280;56688;50.234;19.292;2023-04-08T02:19:10;98749.17;;;2.59;78.96
69127;BME280;56688;50.234;19.292;2023-04-08T02:21:46;98752.95;;;2.51;78.82
69127;BME280;56688;50.234;19.292;2023-04-08T02:24:16;98753.13;;;2.43;79.23
69127;BME280;56688;50.234;19.292;2023-04-08T02:26:44;98757.83;;;2.38;79.27
69127;BME280;56688;50.234;19.292;2023-04-08T02:29:16;98759.55;;;2.34;79.23
69127;BME280;56688;50.234;19.292;2023-04-08T02:31:44;98753.43;;;2.31;79.50
69127;BME280;56688;50.234;19.292;2023-04-08T02:34:13;98758.84;;;2.28;79.66
69127;BME280;56688;50.234;19.292;2023-04-08T02:36:41;98757.52;;;2.24;80.04
69127;BME280;56688;50.234;19.292;2023-04-08T02:39:12;98760.66;;;2.23;80.02
69127;BME280;56688;50.234;19.292;2023-04-08T02:41:38;98764.28;;;2.19;79.85
69127;BME280;56688;50.234;19.292;2023-04-08T02:44:05;98765.01;;;2.17;79.97
69127;BME280;56688;50.234;19.292;2023-04-08T02:46:32;98765.02;;;2.15;80.24
69127;BME280;56688;50.234;19.292;2023-04-08T02:49:01;98767.66;;;2.14;80.30
69127;BME280;56688;50.234;19.292;2023-04-08T02:51:29;98766.45;;;2.17;80.78
69127;BME280;56688;50.234;19.292;2023-04-08T02:53:57;98769.14;;;2.16;80.95
69127;BME280;56688;50.234;19.292;2023-04-08T02:56:24;98768.16;;;2.17;80.68
69127;BME280;56688;50.234;19.292;2023-04-08T02:58:51;98772.72;;;2.19;81.00
69127;BME280;56688;50.234;19.292;2023-04-08T03:01:18;98776.30;;;2.20;81.10
69127;BME280;56688;50.234;19.292;2023-04-08T03:03:45;98776.83;;;2.18;81.19
69127;BME280;56688;50.234;19.292;2023-04-08T03:06:12;98782.98;;;2.18;81.11
69127;BME280;56688;50.234;19.292;2023-04-08T03:08:39;98782.05;;;2.19;81.21
69127;BME280;56688;50.234;19.292;2023-04-08T03:11:05;98787.19;;;2.23;81.39
69127;BME280;56688;50.234;19.292;2023-04-08T03:13:32;98789.42;;;2.28;81.23
69127;BME280;56688;50.234;19.292;2023-04-08T03:16:00;98787.64;;;2.30;81.03
69127;BME280;56688;50.234;19.292;2023-04-08T03:18:26;98788.11;;;2.33;81.00
69127;BME280;56688;50.234;19.292;2023-04-08T03:20:53;98785.58;;;2.34;81.07
69127;BME280;56688;50.234;19.292;2023-04-08T03:23:20;98786.42;;;2.30;80.98
69127;BME280;56688;50.234;19.292;2023-04-08T03:25:47;98787.45;;;2.28;80.53
69127;BME280;56688;50.234;19.292;2023-04-08T03:28:13;98790.73;;;2.25;80.41
69127;BME280;56688;50.234;19.292;2023-04-08T03:30:41;98793.01;;;2.22;80.36
69127;BME280;56688;50.234;19.292;2023-04-08T03:33:07;98792.48;;;2.22;80.76
69127;BME280;56688;50.234;19.292;2023-04-08T03:35:34;98795.30;;;2.18;80.54
69127;BME280;56688;50.234;19.292;2023-04-08T03:38:03;98794.73;;;2.12;80.53
69127;BME280;56688;50.234;19.292;2023-04-08T03:40:30;98799.55;;;2.10;80.50
69127;BME280;56688;50.234;19.292;2023-04-08T03:42:57;98798.64;;;2.06;80.46
69127;BME280;56688;50.234;19.292;2023-04-08T03:45:23;98799.63;;;2.03;80.61
69127;BME280;56688;50.234;19.292;2023-04-08T03:47:50;98804.40;;;2.02;80.35
69127;BME280;56688;50.234;19.292;2023-04-08T03:50:17;98804.20;;;2.02;80.39
69127;BME280;56688;50.234;19.292;2023-04-08T03:52:44;98806.23;;;2.03;80.40
69127;BME280;56688;50.234;19.292;2023-04-08T03:55:11;98804.02;;;2.02;80.24
69127;BME280;56688;50.234;19.292;2023-04-08T03:57:37;98805.70;;;2.03;80.41
69127;BME280;56688;50.234;19.292;2023-04-08T04:00:05;98808.29;;;2.04;80.38
69127;BME280;56688;50.234;19.292;2023-04-08T04:02:37;98811.02;;;2.01;80.21
69127;BME280;56688;50.234;19.292;2023-04-08T04:05:04;98814.70;;;1.92;80.33
69127;BME280;56688;50.234;19.292;2023-04-08T04:07:32;98815.27;;;1.87;80.21
69127;BME280;56688;50.234;19.292;2023-04-08T04:09:59;98814.83;;;1.84;80.31
69127;BME280;56688;50.234;19.292;2023-04-08T04:12:26;98818.40;;;1.83;80.47
69127;BME280;56688;50.234;19.292;2023-04-08T04:14:52;98821.16;;;1.84;80.31
69127;BME280;56688;50.234;19.292;2023-04-08T04:17:19;98823.08;;;1.86;80.86
69127;BME280;56688;50.234;19.292;2023-04-08T04:19:46;98826.60;;;1.86;80.69
69127;BME280;56688;50.234;19.292;2023-04-08T04:22:13;98827.96;;;1.82;80.66
69127;BME280;56688;50.234;19.292;2023-04-08T04:24:39;98830.00;;;1.77;80.84
69127;BME280;56688;50.234;19.292;2023-04-08T04:27:06;98835.71;;;1.74;80.83
69127;BME280;56688;50.234;19.292;2023-04-08T04:29:33;98836.30;;;1.71;80.90
69127;BME280;56688;50.234;19.292;2023-04-08T04:32:00;98837.86;;;1.69;81.01
69127;BME280;56688;50.234;19.292;2023-04-08T04:34:27;98840.28;;;1.70;81.40
69127;BME280;56688;50.234;19.292;2023-04-08T04:36:54;98842.27;;;1.71;81.31
69127;BME280;56688;50.234;19.292;2023-04-08T04:39:21;98844.41;;;1.75;81.46
69127;BME280;56688;50.234;19.292;2023-04-08T04:41:48;98842.31;;;1.77;81.22
69127;BME280;56688;50.234;19.292;2023-04-08T04:44:15;98843.14;;;1.79;81.47
69127;BME280;56688;50.234;19.292;2023-04-08T04:46:42;98847.70;;;1.84;81.46
69127;BME280;56688;50.234;19.292;2023-04-08T04:49:09;98848.04;;;1.86;81.04
69127;BME280;56688;50.234;19.292;2023-04-08T04:51:36;98854.20;;;1.86;80.75
69127;BME280;56688;50.234;19.292;2023-04-08T04:54:03;98855.30;;;1.85;80.90
69127;BME280;56688;50.234;19.292;2023-04-08T04:56:29;98859.22;;;1.87;80.82
69127;BME280;56688;50.234;19.292;2023-04-08T04:58:56;98857.27;;;1.91;81.21
69127;BME280;56688;50.234;19.292;2023-04-08T05:01:23;98857.20;;;1.94;81.22
69127;BME280;56688;50.234;19.292;2023-04-08T05:03:50;98859.98;;;2.01;81.43
69127;BME280;56688;50.234;19.292;2023-04-08T05:06:17;98863.23;;;2.06;81.49
69127;BME280;56688;50.234;19.292;2023-04-08T05:08:44;98864.10;;;2.09;81.57
69127;BME280;56688;50.234;19.292;2023-04-08T05:11:11;98869.36;;;2.11;81.50
69127;BME280;56688;50.234;19.292;2023-04-08T05:13:38;98870.04;;;2.13;81.68
69127;BME280;56688;50.234;19.292;2023-04-08T05:16:05;98873.39;;;2.18;81.73
69127;BME280;56688;50.234;19.292;2023-04-08T05:18:32;98874.86;;;2.25;81.79
69127;BME280;56688;50.234;19.292;2023-04-08T05:20:59;98878.73;;;2.34;81.72
69127;BME280;56688;50.234;19.292;2023-04-08T05:23:26;98882.58;;;2.40;81.52
69127;BME280;56688;50.234;19.292;2023-04-08T05:25:53;98885.33;;;2.47;81.56
69127;BME280;56688;50.234;19.292;2023-04-08T05:28:20;98887.71;;;2.55;81.51
69127;BME280;56688;50.234;19.292;2023-04-08T05:30:49;98889.52;;;2.62;81.44
69127;BME280;56688;50.234;19.292;2023-04-08T05:33:17;98895.91;;;2.68;81.25
69127;BME280;56688;50.234;19.292;2023-04-08T05:35:45;98896.15;;;2.75;81.18
69127;BME280;56688;50.234;19.292;2023-04-08T05:38:12;98894.51;;;2.87;81.47
69127;BME280;56688;50.234;19.292;2023-04-08T05:40:38;98895.02;;;3.01;81.58
69127;BME280;56688;50.234;19.292;2023-04-08T05:43:06;98892.47;;;3.19;81.77
69127;BME280;56688;50.234;19.292;2023-04-08T05:45:34;98898.05;;;3.40;81.76
69127;BME280;56688;50.234;19.292;2023-04-08T05:48:01;98894.81;;;3.60;81.65
69127;BME280;56688;50.234;19.292;2023-04-08T05:50:27;98892.49;;;3.83;81.34
69127;BME280;56688;50.234;19.292;2023-04-08T05:52:54;98898.10;;;4.05;80.86
69127;BME280;56688;50.234;19.292;2023-04-08T05:55:21;98897.04;;;4.22;80.43
69127;BME280;56688;50.234;19.292;2023-04-08T05:57:48;98899.96;;;4.43;80.00
69127;BME280;56688;50.234;19.292;2023-04-08T06:00:15;98902.13;;;4.61;79.24
69127;BME280;56688;50.234;19.292;2023-04-08T06:02:42;98904.62;;;4.80;78.62
69127;BME280;56688;50.234;19.292;2023-04-08T06:05:09;98909.15;;;5.04;78.34
69127;BME280;56688;50.234;19.292;2023-04-08T06:07:36;98908.38;;;5.27;77.57
69127;BME280;56688;50.234;19.292;2023-04-08T06:10:03;98911.70;;;5.40;75.54
69127;BME280;56688;50.234;19.292;2023-04-08T06:12:34;98914.80;;;5.47;74.98
69127;BME280;56688;50.234;19.292;2023-04-08T06:15:01;98919.74;;;5.65;74.71
69127;BME280;56688;50.234;19.292;2023-04-08T06:17:30;98924.27;;;5.82;73.79
69127;BME280;56688;50.234;19.292;2023-04-08T06:19:56;98928.77;;;5.93;72.93
69127;BME280;56688;50.234;19.292;2023-04-08T06:22:23;98929.44;;;6.13;72.69
69127;BME280;56688;50.234;19.292;2023-04-08T06:24:50;98928.30;;;6.48;71.73
69127;BME280;56688;50.234;19.292;2023-04-08T06:27:17;98929.69;;;6.86;70.75
69127;BME280;56688;50.234;19.292;2023-04-08T06:29:43;98935.73;;;7.12;68.36
69127;BME280;56688;50.234;19.292;2023-04-08T06:32:11;98936.14;;;7.23;66.66
69127;BME280;56688;50.234;19.292;2023-04-08T06:34:38;98938.77;;;7.36;66.68
69127;BME280;56688;50.234;19.292;2023-04-08T06:37:05;98939.38;;;7.66;66.91
69127;BME280;56688;50.234;19.292;2023-04-08T06:39:32;98944.63;;;7.90;65.18
69127;BME280;56688;50.234;19.292;2023-04-08T06:42:00;98942.64;;;7.99;63.65
69127;BME280;56688;50.234;19.292;2023-04-08T06:44:38;98942.14;;;8.10;63.62
69127;BME280;56688;50.234;19.292;2023-04-08T06:47:05;98944.02;;;8.29;64.51
69127;BME280;56688;50.234;19.292;2023-04-08T06:49:32;98949.38;;;8.46;63.20
69127;BME280;56688;50.234;19.292;2023-04-08T06:51:58;98955.09;;;8.56;61.93
69127;BME280;56688;50.234;19.292;2023-04-08T06:54:26;98953.66;;;8.53;62.30
69127;BME280;56688;50.234;19.292;2023-04-08T06:56:52;98953.91;;;8.48;61.63
69127;BME280;56688;50.234;19.292;2023-04-08T06:59:19;98956.23;;;8.65;62.39
69127;BME280;56688;50.234;19.292;2023-04-08T07:01:46;98955.11;;;8.88;60.66
69127;BME280;56688;50.234;19.292;2023-04-08T07:04:13;98956.65;;;8.89;59.95
69127;BME280;56688;50.234;19.292;2023-04-08T07:06:40;98959.02;;;8.97;60.64
69127;BME280;56688;50.234;19.292;2023-04-08T07:09:07;98959.35;;;9.08;60.01
69127;BME280;56688;50.234;19.292;2023-04-08T07:11:34;98965.31;;;9.04;59.40
69127;BME280;56688;50.234;19.292;2023-04-08T07:14:01;98967.95;;;8.96;60.19
69127;BME280;56688;50.234;19.292;2023-04-08T07:16:28;98968.81;;;8.98;61.05
69127;BME280;56688;50.234;19.292;2023-04-08T07:18:55;98967.77;;;9.02;60.30
69127;BME280;56688;50.234;19.292;2023-04-08T07:21:22;98970.79;;;8.95;59.99
69127;BME280;56688;50.234;19.292;2023-04-08T07:23:49;98971.48;;;8.95;59.63
69127;BME280;56688;50.234;19.292;2023-04-08T07:26:16;98968.21;;;9.02;59.88
69127;BME280;56688;50.234;19.292;2023-04-08T07:28:42;98970.01;;;9.23;59.83
69127;BME280;56688;50.234;19.292;2023-04-08T07:31:13;98969.71;;;9.56;57.88
69127;BME280;56688;50.234;19.292;2023-04-08T07:33:43;98971.58;;;9.45;57.00
69127;BME280;56688;50.234;19.292;2023-04-08T07:36:11;98972.12;;;9.36;57.03
69127;BME280;56688;50.234;19.292;2023-04-08T07:38:38;98968.75;;;9.58;58.51
69127;BME280;56688;50.234;19.292;2023-04-08T07:41:05;98967.02;;;10.07;58.54
69127;BME280;56688;50.234;19.292;2023-04-08T07:43:32;98963.80;;;10.70;56.84
69127;BME280;56688;50.234;19.292;2023-04-08T07:46:03;98970.13;;;11.02;55.29
69127;BME280;56688;50.234;19.292;2023-04-08T07:48:31;98968.46;;;11.43;54.60
69127;BME280;56688;50.234;19.292;2023-04-08T07:51:02;98967.92;;;11.91;53.57
69127;BME280;56688;50.234;19.292;2023-04-08T07:53:37;98965.17;;;12.50;50.77
69127;BME280;56688;50.234;19.292;2023-04-08T07:56:13;98967.75;;;12.71;50.47
69127;BME280;56688;50.234;19.292;2023-04-08T07:58:41;98970.23;;;13.08;48.48
69127;BME280;56688;50.234;19.292;2023-04-08T08:01:17;98973.78;;;13.46;47.89
69127;BME280;56688;50.234;19.292;2023-04-08T08:03:45;98974.46;;;13.86;46.61
69127;BME280;56688;50.234;19.292;2023-04-08T08:06:14;98977.42;;;13.99;45.31
69127;BME280;56688;50.234;19.292;2023-04-08T08:08:41;98978.67;;;13.72;44.93
69127;BME280;56688;50.234;19.292;2023-04-08T08:11:08;98974.64;;;13.61;46.28
69127;BME280;56688;50.234;19.292;2023-04-08T08:13:35;98969.23;;;14.03;46.15
69127;BME280;56688;50.234;19.292;2023-04-08T08:16:01;98968.23;;;14.64;44.96
69127;BME280;56688;50.234;19.292;2023-04-08T08:18:28;98968.42;;;15.29;44.05
69127;BME280;56688;50.234;19.292;2023-04-08T08:20:55;98964.59;;;15.84;42.90
69127;BME280;56688;50.234;19.292;2023-04-08T08:23:22;98963.21;;;16.43;41.22
69127;BME280;56688;50.234;19.292;2023-04-08T08:25:58;98961.31;;;16.78;39.99
69127;BME280;56688;50.234;19.292;2023-04-08T08:28:25;98960.34;;;16.82;39.53
69127;BME280;56688;50.234;19.292;2023-04-08T08:30:52;98967.40;;;16.76;39.68
69127;BME280;56688;50.234;19.292;2023-04-08T08:33:19;98970.62;;;17.10;39.68
69127;BME280;56688;50.234;19.292;2023-04-08T08:35:45;98975.70;;;17.55;39.87
69127;BME280;56688;50.234;19.292;2023-04-08T08:38:12;98978.27;;;17.73;38.87
69127;BME280;56688;50.234;19.292;2023-04-08T08:40:39;98980.16;;;17.63;39.18
69127;BME280;56688;50.234;19.292;2023-04-08T08:43:06;98987.79;;;17.51;38.52
69127;BME280;56688;50.234;19.292;2023-04-08T08:45:39;98988.20;;;17.47;37.81
69127;BME280;56688;50.234;19.292;2023-04-08T08:48:07;98990.02;;;17.61;38.46
69127;BME280;56688;50.234;19.292;2023-04-08T08:50:34;98990.54;;;17.93;38.35
69127;BME280;56688;50.234;19.292;2023-04-08T08:53:02;98992.02;;;18.17;37.03
69127;BME280;56688;50.234;19.292;2023-04-08T08:55:31;98991.67;;;18.16;36.71
69127;BME280;56688;50.234;19.292;2023-04-08T08:58:25;98999.35;;;17.89;36.81
69127;BME280;56688;50.234;19.292;2023-04-08T09:00:52;99002.96;;;17.70;37.25
69127;BME280;56688;50.234;19.292;2023-04-08T09:03:21;99001.55;;;17.75;37.78
69127;BME280;56688;50.234;19.292;2023-04-08T09:05:51;99000.71;;;17.72;37.30
69127;BME280;56688;50.234;19.292;2023-04-08T09:08:35;99001.16;;;17.48;36.75
69127;BME280;56688;50.234;19.292;2023-04-08T09:11:10;99000.39;;;17.46;37.34
69127;BME280;56688;50.234;19.292;2023-04-08T09:13:38;99006.08;;;17.35;36.47
69127;BME280;56688;50.234;19.292;2023-04-08T09:16:07;99005.52;;;16.90;37.01
69127;BME280;56688;50.234;19.292;2023-04-08T09:18:36;99011.59;;;16.70;37.89
69127;BME280;56688;50.234;19.292;2023-04-08T09:21:04;99012.79;;;16.49;38.26
69127;BME280;56688;50.234;19.292;2023-04-08T09:23:37;99017.47;;;16.29;37.61
69127;BME280;56688;50.234;19.292;2023-04-08T09:26:12;99016.99;;;16.18;37.96
69127;BME280;56688;50.234;19.292;2023-04-08T09:28:41;99018.39;;;16.36;38.23
69127;BME280;56688;50.234;19.292;2023-04-08T09:31:25;99018.31;;;16.56;38.40
69127;BME280;56688;50.234;19.292;2023-04-08T09:33:55;99021.84;;;16.67;38.25
69127;BME280;56688;50.234;19.292;2023-04-08T09:36:22;99025.27;;;16.88;38.58
69127;BME280;56688;50.234;19.292;2023-04-08T09:38:50;99021.27;;;16.99;38.75
69127;BME280;56688;50.234;19.292;2023-04-08T09:41:17;99029.86;;;16.96;38.85
69127;BME280;56688;50.234;19.292;2023-04-08T09:43:47;99031.23;;;16.87;37.93
69127;BME280;56688;50.234;19.292;2023-04-08T09:46:32;99030.15;;;16.67;37.54
69127;BME280;56688;50.234;19.292;2023-04-08T09:51:52;99040.88;;;16.30;37.99
69127;BME280;56688;50.234;19.292;2023-04-08T09:54:30;99042.55;;;15.95;38.85
69127;BME280;56688;50.234;19.292;2023-04-08T09:57:00;99043.50;;;15.62;38.47
69127;BME280;56688;50.234;19.292;2023-04-08T09:59:32;99042.77;;;15.37;39.34
69127;BME280;56688;50.234;19.292;2023-04-08T10:02:06;99041.71;;;15.15;39.36
69127;BME280;56688;50.234;19.292;2023-04-08T10:04:37;99041.34;;;14.95;40.60
69127;BME280;56688;50.234;19.292;2023-04-08T10:07:07;99044.83;;;14.72;41.14
69127;BME280;56688;50.234;19.292;2023-04-08T10:09:34;99048.93;;;14.63;42.59
69127;BME280;56688;50.234;19.292;2023-04-08T10:12:04;99046.80;;;14.77;42.16
69127;BME280;56688;50.234;19.292;2023-04-08T10:14:31;99043.10;;;14.76;41.05
69127;BME280;56688;50.234;19.292;2023-04-08T10:20:02;99048.48;;;14.78;41.86
69127;BME280;56688;50.234;19.292;2023-04-08T10:27:42;99049.96;;;14.75;42.15
69127;BME280;56688;50.234;19.292;2023-04-08T10:32:53;99046.52;;;14.87;41.03
69127;BME280;56688;50.234;19.292;2023-04-08T10:37:57;99034.88;;;15.44;41.03
69127;BME280;56688;50.234;19.292;2023-04-08T10:40:25;99037.98;;;15.57;40.53
69127;BME280;56688;50.234;19.292;2023-04-08T10:45:23;99044.80;;;15.30;39.68
69127;BME280;56688;50.234;19.292;2023-04-08T10:47:50;99046.80;;;14.93;40.23
69127;BME280;56688;50.234;19.292;2023-04-08T10:50:18;99051.23;;;14.60;41.60
69127;BME280;56688;50.234;19.292;2023-04-08T10:52:47;99043.58;;;14.33;41.89
69127;BME280;56688;50.234;19.292;2023-04-08T10:55:14;99040.23;;;14.16;42.44
69127;BME280;56688;50.234;19.292;2023-04-08T10:57:42;99045.98;;;14.02;42.86
69127;BME280;56688;50.234;19.292;2023-04-08T11:00:10;99048.15;;;13.86;42.64
69127;BME280;56688;50.234;19.292;2023-04-08T11:02:37;99047.99;;;13.55;42.82
69127;BME280;56688;50.234;19.292;2023-04-08T11:05:05;99051.52;;;13.33;43.64
69127;BME280;56688;50.234;19.292;2023-04-08T11:07:32;99049.36;;;13.14;43.69
69127;BME280;56688;50.234;19.292;2023-04-08T11:10:02;99056.42;;;12.91;44.06
69127;BME280;56688;50.234;19.292;2023-04-08T11:12:30;99060.11;;;12.71;45.38
69127;BME280;56688;50.234;19.292;2023-04-08T11:14:58;99054.13;;;12.57;45.38
69127;BME280;56688;50.234;19.292;2023-04-08T11:17:25;99049.69;;;12.48;45.89
69127;BME280;56688;50.234;19.292;2023-04-08T11:19:53;99055.91;;;12.44;46.25
69127;BME280;56688;50.234;19.292;2023-04-08T11:22:20;99059.80;;;12.40;46.51
69127;BME280;56688;50.234;19.292;2023-04-08T11:24:48;99065.21;;;12.34;46.84
69127;BME280;56688;50.234;19.292;2023-04-08T11:27:15;99063.64;;;12.22;46.76
69127;BME280;56688;50.234;19.292;2023-04-08T11:29:42;99059.03;;;11.97;46.78
69127;BME280;56688;50.234;19.292;2023-04-08T11:32:09;99052.91;;;11.66;47.67
69127;BME280;56688;50.234;19.292;2023-04-08T11:34:38;99048.60;;;11.49;48.21
69127;BME280;56688;50.234;19.292;2023-04-08T11:37:06;99049.35;;;11.33;48.95
69127;BME280;56688;50.234;19.292;2023-04-08T11:39:33;99052.73;;;11.27;49.71
69127;BME280;56688;50.234;19.292;2023-04-08T11:41:59;99058.21;;;11.20;49.87
69127;BME280;56688;50.234;19.292;2023-04-08T11:44:30;99056.26;;;11.08;50.77
69127;BME280;56688;50.234;19.292;2023-04-08T11:46:58;99053.00;;;10.94;50.91
69127;BME280;56688;50.234;19.292;2023-04-08T11:49:42;99059.88;;;10.80;51.32
69127;BME280;56688;50.234;19.292;2023-04-08T11:52:10;99057.52;;;10.66;51.60
69127;BME280;56688;50.234;19.292;2023-04-08T11:54:40;99061.98;;;10.60;52.30
69127;BME280;56688;50.234;19.292;2023-04-08T11:57:08;99054.70;;;10.52;52.58
69127;BME280;56688;50.234;19.292;2023-04-08T11:59:36;99056.47;;;10.41;53.21
69127;BME280;56688;50.234;19.292;2023-04-08T12:02:03;99051.88;;;10.38;53.33
69127;BME280;56688;50.234;19.292;2023-04-08T12:04:30;99048.46;;;10.38;53.43
69127;BME280;56688;50.234;19.292;2023-04-08T12:06:57;99048.75;;;10.43;53.58
69127;BME280;56688;50.234;19.292;2023-04-08T12:09:24;99052.38;;;10.45;54.79
69127;BME280;56688;50.234;19.292;2023-04-08T12:11:51;99048.40;;;10.49;54.52
69127;BME280;56688;50.234;19.292;2023-04-08T12:14:18;99049.65;;;10.48;53.44
69127;BME280;56688;50.234;19.292;2023-04-08T12:16:47;99049.19;;;10.42;53.27
69127;BME280;56688;50.234;19.292;2023-04-08T12:19:14;99048.90;;;10.39;53.96
69127;BME280;56688;50.234;19.292;2023-04-08T12:21:40;99049.62;;;10.32;54.22
69127;BME280;56688;50.234;19.292;2023-04-08T12:24:07;99050.25;;;10.26;54.38
69127;BME280;56688;50.234;19.292;2023-04-08T12:26:34;99050.73;;;10.22;54.84
69127;BME280;56688;50.234;19.292;2023-04-08T12:29:01;99059.04;;;10.15;54.24
69127;BME280;56688;50.234;19.292;2023-04-08T12:31:28;99059.48;;;10.07;54.61
69127;BME280;56688;50.234;19.292;2023-04-08T12:33:55;99066.11;;;10.01;54.91
69127;BME280;56688;50.234;19.292;2023-04-08T12:36:21;99066.64;;;9.90;55.28
69127;BME280;56688;50.234;19.292;2023-04-08T12:38:48;99066.57;;;9.71;55.25
69127;BME280;56688;50.234;19.292;2023-04-08T12:41:15;99066.92;;;9.55;56.09
69127;BME280;56688;50.234;19.292;2023-04-08T12:43:42;99064.86;;;9.43;56.87
69127;BME280;56688;50.234;19.292;2023-04-08T12:46:09;99065.05;;;9.33;57.08
69127;BME280;56688;50.234;19.292;2023-04-08T12:48:36;99062.83;;;9.23;57.53
69127;BME280;56688;50.234;19.292;2023-04-08T12:51:03;99062.88;;;9.14;58.07
69127;BME280;56688;50.234;19.292;2023-04-08T12:53:30;99064.84;;;9.04;58.56
69127;BME280;56688;50.234;19.292;2023-04-08T12:55:57;99064.25;;;8.91;59.27
69127;BME280;56688;50.234;19.292;2023-04-08T12:58:23;99062.13;;;8.79;59.81
69127;BME280;56688;50.234;19.292;2023-04-08T13:00:51;99064.94;;;8.73;60.37
69127;BME280;56688;50.234;19.292;2023-04-08T13:03:18;99069.36;;;8.72;60.86
69127;BME280;56688;50.234;19.292;2023-04-08T13:05:45;99073.50;;;8.74;61.60
69127;BME280;56688;50.234;19.292;2023-04-08T13:08:12;99073.17;;;8.77;61.48
69127;BME280;56688;50.234;19.292;2023-04-08T13:10:41;99072.58;;;8.78;61.49
69127;BME280;56688;50.234;19.292;2023-04-08T13:13:08;99079.20;;;8.74;61.42
69127;BME280;56688;50.234;19.292;2023-04-08T13:15:34;99076.52;;;8.75;61.71
69127;BME280;56688;50.234;19.292;2023-04-08T13:18:02;99077.86;;;8.75;61.79
69127;BME280;56688;50.234;19.292;2023-04-08T13:20:30;99077.18;;;8.75;62.06
69127;BME280;56688;50.234;19.292;2023-04-08T13:22:57;99073.05;;;8.80;61.85